Time;durP1;ratioP1;P1;durP2;ratioP2;P2;SDS_P1;SDS_P2;PMS_P1;PMS_P2;Temp;Humidity;BMP_temperature;BMP_pressure;BME280_temperature;BME280_humidity;BME280_pressure;Samples;Min_cycle;Max_cycle;Signal;HPM_P1;HPM_P2
2023/07/21 00:00:21;;;;;;;3.90;3.60;;;15.70;1.00;;;;;;5093522;28;20187;-42
2023/07/21 00:02:47;;;;;;;4.63;3.47;;;15.80;1.00;;;;;;5093808;28;20195;-42
2023/07/21 00:05:13;;;;;;;4.20;3.80;;;15.70;1.00;;;;;;5093944;28;20198;-42
2023/07/21 00:07:39;;;;;;;4.03;3.63;;;15.60;1.00;;;;;;5094070;28;20198;-42
2023/07/21 00:10:07;;;;;;;4.00;3.70;;;15.60;1.00;;;;;;5093818;28;20217;-40
2023/07/21 00:12:47;;;;;;;7.67;4.10;;;15.60;1.00;;;;;;5093810;28;20178;-41
2023/07/21 00:15:18;;;;;;;4.20;3.80;;;15.60;1.00;;;;;;5093988;28;20194;-42
2023/07/21 00:17:47;;;;;;;4.37;4.00;;;15.50;1.00;;;;;;5094626;28;20214;-42
2023/07/21 00:20:19;;;;;;;3.90;3.60;;;15.50;1.00;;;;;;5104231;28;20242;-42
2023/07/21 00:22:45;;;;;;;3.90;3.50;;;15.50;1.00;;;;;;5104674;28;20179;-42
2023/07/21 00:25:11;;;;;;;4.30;3.80;;;15.50;1.00;;;;;;5093466;28;20568;-41
2023/07/21 00:27:42;;;;;;;4.20;3.33;;;15.50;1.00;;;;;;5095167;28;20179;-42
2023/07/21 00:30:08;;;;;;;4.37;3.50;;;15.50;1.00;;;;;;5097826;28;20159;-41
2023/07/21 00:32:37;;;;;;;3.90;3.50;;;15.50;1.00;;;;;;5098234;28;20255;-42
2023/07/21 00:35:05;;;;;;;4.03;3.40;;;15.50;1.00;;;;;;5080206;28;20214;-41
2023/07/21 00:37:31;;;;;;;3.50;3.20;;;15.40;1.00;;;;;;5099264;28;20197;-41
2023/07/21 00:39:57;;;;;;;4.97;3.50;;;15.40;1.00;;;;;;5080150;28;20175;-42
2023/07/21 00:42:22;;;;;;;4.90;3.27;;;15.40;1.00;;;;;;5097479;28;20254;-40
2023/07/21 00:44:48;;;;;;;6.07;3.20;;;15.40;1.00;;;;;;5096994;28;20182;-42
2023/07/21 00:47:14;;;;;;;5.93;3.37;;;15.40;1.00;;;;;;5096888;28;20183;-40
2023/07/21 00:49:40;;;;;;;5.00;3.70;;;15.40;1.00;;;;;;5097168;28;20236;-42
2023/07/21 00:52:09;;;;;;;5.00;3.33;;;15.30;1.00;;;;;;5096912;28;20575;-42
2023/07/21 00:54:35;;;;;;;4.70;3.50;;;15.30;1.00;;;;;;5097104;28;20175;-42
2023/07/21 00:57:01;;;;;;;6.07;3.70;;;15.30;1.00;;;;;;5096555;28;20214;-41
2023/07/21 00:59:27;;;;;;;3.93;3.57;;;15.30;1.00;;;;;;5096485;28;20195;-41
2023/07/21 01:01:53;;;;;;;4.43;3.70;;;15.30;1.00;;;;;;5096890;28;20636;-43
2023/07/21 01:04:19;;;;;;;4.00;3.60;;;15.30;1.00;;;;;;5096835;28;20591;-43
2023/07/21 01:06:46;;;;;;;6.00;3.40;;;15.30;1.00;;;;;;5096554;28;20282;-41
2023/07/21 01:09:12;;;;;;;3.93;3.53;;;15.30;1.00;;;;;;5096853;28;20183;-41
2023/07/21 01:11:39;;;;;;;3.40;3.10;;;15.20;1.00;;;;;;5096444;28;20174;-43
2023/07/21 01:14:07;;;;;;;4.20;3.80;;;15.20;1.00;;;;;;5096466;28;20182;-42
2023/07/21 01:16:37;;;;;;;5.07;4.10;;;15.20;1.00;;;;;;5096403;28;20624;-41
2023/07/21 01:19:08;;;;;;;6.17;4.00;;;15.10;1.00;;;;;;5096649;28;20189;-41
2023/07/21 01:21:41;;;;;;;3.87;3.47;;;15.10;1.00;;;;;;5096148;28;20250;-40
2023/07/21 01:24:29;;;;;;;3.70;3.40;;;15.10;1.00;;;;;;5078145;28;20171;-44
2023/07/21 01:26:56;;;;;;;4.47;4.07;;;15.00;1.00;;;;;;5096214;28;20195;-43
2023/07/21 01:29:25;;;;;;;4.30;3.90;;;15.00;1.00;;;;;;5096365;28;20171;-42
2023/07/21 01:31:53;;;;;;;4.50;4.00;;;15.00;1.00;;;;;;5095977;28;20344;-42
2023/07/21 01:34:20;;;;;;;4.03;3.63;;;14.90;1.00;;;;;;5078154;28;20186;-39
2023/07/21 01:36:46;;;;;;;3.53;3.23;;;14.80;1.00;;;;;;5077699;28;20238;-43
2023/07/21 01:39:12;;;;;;;4.40;4.00;;;14.90;1.00;;;;;;5095272;28;20217;-43
2023/07/21 01:41:38;;;;;;;5.97;3.90;;;14.90;1.00;;;;;;5096166;28;20175;-42
2023/07/21 01:44:04;;;;;;;5.07;4.20;;;14.80;1.00;;;;;;5095754;28;20239;-41
2023/07/21 01:46:30;;;;;;;6.97;4.50;;;14.80;1.00;;;;;;5096036;28;20203;-43
2023/07/21 01:48:56;;;;;;;9.87;5.63;;;14.80;1.00;;;;;;5095876;28;20344;-43
2023/07/21 01:51:24;;;;;;;8.10;6.57;;;14.80;1.00;;;;;;5095685;28;20193;-43
2023/07/21 01:54:05;;;;;;;7.47;6.00;;;14.90;1.00;;;;;;5095766;28;20190;-43
2023/07/21 01:56:45;;;;;;;6.53;5.57;;;14.90;1.00;;;;;;5096226;28;20218;-41
2023/07/21 01:59:12;;;;;;;5.70;5.20;;;14.80;1.00;;;;;;5096182;28;20186;-43
2023/07/21 02:01:39;;;;;;;5.70;5.20;;;14.90;1.00;;;;;;5095969;28;20198;-44
2023/07/21 02:04:05;;;;;;;8.00;5.17;;;14.90;1.00;;;;;;5095592;28;20176;-42
2023/07/21 02:06:32;;;;;;;5.10;4.70;;;14.90;1.00;;;;;;5095370;28;20194;-42
2023/07/21 02:08:57;;;;;;;6.97;5.77;;;14.90;1.00;;;;;;5095350;28;20170;-42
2023/07/21 02:11:24;;;;;;;7.67;6.33;;;14.80;1.00;;;;;;5095250;28;20175;-40
2023/07/21 02:13:50;;;;;;;5.80;5.20;;;14.80;1.00;;;;;;5095787;28;20552;-43
2023/07/21 02:16:15;;;;;;;7.20;6.20;;;14.80;1.00;;;;;;5095417;28;20628;-43
2023/07/21 02:18:42;;;;;;;9.07;6.63;;;14.90;1.00;;;;;;5095028;28;20258;-42
2023/07/21 02:21:08;;;;;;;6.43;5.63;;;14.80;1.00;;;;;;5095337;28;20513;-42
2023/07/21 02:23:34;;;;;;;5.67;5.13;;;14.80;1.00;;;;;;5095249;28;20223;-42
2023/07/21 02:25:59;;;;;;;6.33;5.73;;;14.80;1.00;;;;;;5095126;28;20198;-41
2023/07/21 02:28:25;;;;;;;7.23;5.33;;;14.90;1.00;;;;;;5095244;28;20175;-42
2023/07/21 02:30:57;;;;;;;7.30;5.83;;;14.90;1.00;;;;;;5095173;28;20179;-42
2023/07/21 02:33:23;;;;;;;6.97;6.27;;;14.90;1.00;;;;;;5094832;28;20190;-42
2023/07/21 02:35:48;;;;;;;9.60;7.50;;;14.90;1.00;;;;;;5076440;28;20247;-42
2023/07/21 02:38:14;;;;;;;7.83;7.13;;;14.90;1.00;;;;;;5095336;28;20172;-39
2023/07/21 02:40:39;;;;;;;7.90;7.10;;;14.90;1.00;;;;;;5094638;28;20175;-41
2023/07/21 02:43:05;;;;;;;7.47;6.60;;;14.90;1.00;;;;;;5094676;28;20659;-41
2023/07/21 02:45:31;;;;;;;8.50;7.20;;;14.90;1.00;;;;;;5094778;28;20202;-40
2023/07/21 02:47:57;;;;;;;7.33;6.50;;;14.90;1.00;;;;;;5094523;28;20185;-42
2023/07/21 02:50:24;;;;;;;8.63;7.20;;;14.90;1.00;;;;;;5094694;28;20547;-46
2023/07/21 02:52:49;;;;;;;9.97;8.97;;;14.90;1.00;;;;;;5094459;28;20175;-41
2023/07/21 02:55:15;;;;;;;8.77;8.00;;;14.90;1.00;;;;;;5094444;28;20720;-42
2023/07/21 02:57:40;;;;;;;9.57;8.67;;;14.90;1.00;;;;;;5094612;28;20171;-41
2023/07/21 03:00:10;;;;;;;11.43;8.37;;;14.90;1.00;;;;;;5094108;28;20199;-42
2023/07/21 03:02:35;;;;;;;11.47;7.07;;;15.00;1.00;;;;;;5094640;28;20235;-42
2023/07/21 03:05:05;;;;;;;11.40;6.63;;;15.00;1.00;;;;;;5094274;28;20171;-41
2023/07/21 03:07:30;;;;;;;11.77;6.07;;;14.90;1.00;;;;;;5094136;28;20175;-43
2023/07/21 03:09:56;;;;;;;7.40;5.83;;;14.90;1.00;;;;;;5094375;28;20232;-45
2023/07/21 03:12:21;;;;;;;7.27;6.27;;;14.90;1.00;;;;;;5094474;28;20206;-42
2023/07/21 03:14:48;;;;;;;10.10;7.03;;;14.80;1.00;;;;;;5094294;28;20174;-40
2023/07/21 03:17:14;;;;;;;6.60;6.00;;;14.80;1.00;;;;;;5094221;28;20201;-41
2023/07/21 03:19:40;;;;;;;6.63;6.03;;;14.80;1.00;;;;;;5094226;28;20539;-42
2023/07/21 03:22:06;;;;;;;8.27;6.57;;;14.80;1.00;;;;;;5094085;28;20663;-41
2023/07/21 03:24:34;;;;;;;7.53;6.83;;;14.70;1.00;;;;;;5093989;28;20320;-42
2023/07/21 03:27:00;;;;;;;8.10;6.70;;;14.70;1.00;;;;;;5093713;28;20194;-41
2023/07/21 03:29:25;;;;;;;7.87;6.40;;;14.70;1.00;;;;;;5094257;28;20175;-42
2023/07/21 03:31:51;;;;;;;7.00;6.30;;;14.70;1.00;;;;;;5093879;28;20228;-40
2023/07/21 03:34:17;;;;;;;8.93;6.53;;;14.60;1.00;;;;;;5094039;28;20650;-41
2023/07/21 03:36:42;;;;;;;9.33;7.03;;;14.60;1.00;;;;;;5093610;28;20244;-43
2023/07/21 03:39:08;;;;;;;7.83;7.10;;;14.60;1.00;;;;;;5094070;28;20171;-39
2023/07/21 03:41:34;;;;;;;11.43;7.33;;;14.60;1.00;;;;;;5077386;28;20175;-43
2023/07/21 03:44:00;;;;;;;8.50;7.13;;;14.50;1.00;;;;;;5093895;28;20262;-40
2023/07/21 03:46:25;;;;;;;8.93;7.07;;;14.50;1.00;;;;;;5094012;28;20206;-42
2023/07/21 03:48:51;;;;;;;9.63;7.83;;;14.50;1.00;;;;;;5093593;28;20178;-42
2023/07/21 03:51:16;;;;;;;8.53;7.73;;;14.40;1.00;;;;;;5093825;28;20187;-41
2023/07/21 03:53:42;;;;;;;14.07;7.87;;;14.40;1.00;;;;;;5093600;28;20642;-41
2023/07/21 03:56:07;;;;;;;10.07;9.07;;;14.40;1.00;;;;;;5093342;28;20681;-41
2023/07/21 03:58:33;;;;;;;9.90;8.57;;;14.40;1.00;;;;;;5093596;28;20625;-43
2023/07/21 04:00:59;;;;;;;8.73;7.87;;;14.40;9.70;;;;;;5093487;28;20166;-41
2023/07/21 04:03:25;;;;;;;10.53;8.93;;;14.40;4.80;;;;;;5099782;28;20181;-42
2023/07/21 04:05:53;;;;;;;8.63;7.40;;;14.40;1.40;;;;;;5100415;28;20203;-41
2023/07/21 04:08:20;;;;;;;8.07;6.90;;;14.40;1.00;;;;;;5100851;28;20203;-41
2023/07/21 04:10:46;;;;;;;13.03;6.60;;;14.40;1.00;;;;;;5100270;28;20243;-40
2023/07/21 04:13:12;;;;;;;8.83;6.77;;;14.30;1.00;;;;;;5100146;28;20163;-41
2023/07/21 04:15:37;;;;;;;9.40;6.97;;;14.30;1.00;;;;;;5099970;28;20685;-41
2023/07/21 04:18:06;;;;;;;8.50;6.83;;;14.30;1.00;;;;;;5100281;28;20175;-40
2023/07/21 04:20:32;;;;;;;10.40;6.73;;;14.30;1.00;;;;;;5100029;28;20689;-42
2023/07/21 04:22:58;;;;;;;6.53;5.87;;;14.20;1.00;;;;;;5100278;28;20539;-41
2023/07/21 04:25:24;;;;;;;8.33;6.30;;;14.20;1.00;;;;;;5100211;28;20213;-42
2023/07/21 04:31:14;;;;;;;11.37;6.33;;;14.20;1.00;;;;;;5085194;28;20240;-40
2023/07/21 04:36:59;;;;;;;10.37;7.13;;;14.20;1.00;;;;;;5089640;28;20252;-39
2023/07/21 04:39:25;;;;;;;7.50;6.43;;;14.20;1.00;;;;;;5100146;28;20175;-42
2023/07/21 04:41:50;;;;;;;7.00;6.40;;;14.30;1.00;;;;;;5099820;28;20647;-42
2023/07/21 04:44:16;;;;;;;9.90;6.93;;;14.30;1.00;;;;;;5099835;28;20208;-40
2023/07/21 04:46:42;;;;;;;7.53;6.83;;;14.30;1.00;;;;;;5099936;28;20608;-40
2023/07/21 04:49:09;;;;;;;9.20;6.87;;;14.30;1.00;;;;;;5100058;28;20548;-41
2023/07/21 04:51:34;;;;;;;10.47;7.27;;;14.30;1.00;;;;;;5100001;28;20269;-41
2023/07/21 04:54:00;;;;;;;10.03;7.67;;;14.30;1.00;;;;;;5100107;28;20261;-42
2023/07/21 04:56:26;;;;;;;9.30;7.77;;;14.30;1.00;;;;;;5099524;28;20210;-43
2023/07/21 04:58:52;;;;;;;9.73;8.73;;;14.40;1.00;;;;;;5099423;28;20195;-43
2023/07/21 05:01:18;;;;;;;9.87;7.87;;;14.40;1.00;;;;;;5099739;28;20170;-42
2023/07/21 05:03:43;;;;;;;11.17;8.47;;;14.50;1.00;;;;;;5099827;28;20342;-41
2023/07/21 05:06:12;;;;;;;10.70;9.47;;;14.60;1.00;;;;;;5099595;28;20190;-40
2023/07/21 05:08:37;;;;;;;13.03;10.83;;;14.60;1.00;;;;;;5099776;28;20254;-43
2023/07/21 05:11:03;;;;;;;11.43;10.27;;;14.70;1.00;;;;;;5099854;28;20253;-44
2023/07/21 05:13:29;;;;;;;12.17;10.97;;;14.80;1.00;;;;;;5097309;28;20712;-42
2023/07/21 05:15:54;;;;;;;12.50;10.40;;;14.80;1.00;;;;;;5096337;28;20671;-41
2023/07/21 05:18:20;;;;;;;15.90;12.43;;;14.90;1.00;;;;;;5096709;28;20220;-42
2023/07/21 05:20:45;;;;;;;14.53;12.97;;;15.00;1.00;;;;;;5096180;28;20187;-43
2023/07/21 05:23:11;;;;;;;14.33;12.93;;;15.00;1.00;;;;;;5096161;28;20250;-42
2023/07/21 05:25:37;;;;;;;15.20;13.43;;;15.00;1.00;;;;;;5096394;28;20641;-41
2023/07/21 05:28:03;;;;;;;15.17;13.67;;;15.10;1.00;;;;;;5096461;28;20178;-42
2023/07/21 05:30:28;;;;;;;17.57;14.40;;;15.10;1.00;;;;;;5096385;28;20187;-41
2023/07/21 05:32:56;;;;;;;15.73;13.17;;;15.10;1.00;;;;;;5096096;28;20183;-43
2023/07/21 05:35:23;;;;;;;17.77;13.77;;;15.20;1.00;;;;;;5096459;28;20244;-44
2023/07/21 05:37:48;;;;;;;17.13;15.33;;;15.20;1.00;;;;;;5078412;28;20178;-41
2023/07/21 05:40:14;;;;;;;16.03;14.40;;;15.20;1.00;;;;;;5097681;28;20224;-41
2023/07/21 05:42:40;;;;;;;15.43;13.83;;;15.30;1.00;;;;;;5096591;28;20181;-41
2023/07/21 05:45:06;;;;;;;15.50;13.90;;;15.30;1.00;;;;;;5096106;28;20191;-40
2023/07/21 05:47:32;;;;;;;15.20;13.67;;;15.40;1.00;;;;;;5095968;28;20254;-41
2023/07/21 05:50:00;;;;;;;16.20;14.60;;;15.40;2.40;;;;;;5096039;28;20260;-40
2023/07/21 05:52:29;;;;;;;14.87;13.10;;;15.50;5.90;;;;;;5077586;28;20546;-40
2023/07/21 05:54:55;;;;;;;18.43;14.37;;;15.50;7.00;;;;;;5095551;28;20183;-42
2023/07/21 05:57:20;;;;;;;16.93;14.67;;;15.60;15.60;;;;;;5095433;28;20689;-41
2023/07/21 05:59:46;;;;;;;16.63;15.00;;;15.60;20.20;;;;;;5095342;28;20195;-42
2023/07/21 06:02:12;;;;;;;18.87;14.67;;;15.70;29.60;;;;;;5095760;28;20258;-40
2023/07/21 06:04:38;;;;;;;18.50;15.30;;;15.80;32.40;;;;;;5095539;28;20627;-41
2023/07/21 06:07:03;;;;;;;16.13;14.53;;;15.80;31.40;;;;;;5095230;28;20199;-40
2023/07/21 06:09:29;;;;;;;16.30;14.70;;;15.90;32.60;;;;;;5095529;28;20217;-42
2023/07/21 06:11:55;;;;;;;16.67;14.60;;;15.90;38.70;;;;;;5095432;28;20232;-41
2023/07/21 06:14:21;;;;;;;16.57;14.93;;;16.00;47.20;;;;;;5095147;28;20187;-38
2023/07/21 06:16:46;;;;;;;17.70;15.90;;;16.20;43.60;;;;;;5095352;28;20214;-41
2023/07/21 06:19:12;;;;;;;17.53;15.03;;;16.30;37.30;;;;;;5095183;28;20183;-43
2023/07/21 06:21:39;;;;;;;17.10;15.40;;;16.40;33.20;;;;;;5095087;28;20642;-40
2023/07/21 06:24:04;;;;;;;16.80;14.90;;;16.40;33.40;;;;;;5095051;28;20183;-41
2023/07/21 06:26:31;;;;;;;17.73;15.13;;;16.60;36.40;;;;;;5094596;28;20203;-40
2023/07/21 06:28:56;;;;;;;16.80;15.10;;;16.70;42.60;;;;;;5095012;28;20635;-40
2023/07/21 06:31:23;;;;;;;16.20;14.43;;;16.80;36.70;;;;;;5094986;28;20224;-41
2023/07/21 06:33:49;;;;;;;17.30;14.33;;;17.00;28.60;;;;;;5094828;28;20197;-40
2023/07/21 06:36:17;;;;;;;16.13;13.47;;;17.20;31.00;;;;;;5094666;28;20211;-39
2023/07/21 06:38:43;;;;;;;15.67;13.97;;;17.40;23.10;;;;;;5094824;28;20220;-40
2023/07/21 06:41:09;;;;;;;17.97;13.80;;;17.60;14.50;;;;;;5094672;28;20577;-41
2023/07/21 06:43:34;;;;;;;15.50;13.90;;;17.70;7.80;;;;;;5094971;28;20205;-42
2023/07/21 06:46:02;;;;;;;16.30;13.60;;;17.90;5.40;;;;;;5094985;28;20637;-41
2023/07/21 06:48:28;;;;;;;14.20;12.70;;;18.00;1.00;;;;;;5094995;28;20266;-42
2023/07/21 06:50:54;;;;;;;14.47;12.97;;;18.20;1.00;;;;;;5094806;28;20223;-41
2023/07/21 06:53:19;;;;;;;15.20;12.67;;;18.40;1.00;;;;;;5094827;28;20543;-41
2023/07/21 06:55:49;;;;;;;14.70;11.93;;;18.50;1.00;;;;;;5094380;28;20202;-41
2023/07/21 06:58:14;;;;;;;12.87;11.57;;;18.70;1.00;;;;;;5076481;28;20224;-41
2023/07/21 07:00:40;;;;;;;13.27;11.83;;;18.80;1.00;;;;;;5095106;28;20546;-41
2023/07/21 07:03:06;;;;;;;12.77;11.47;;;18.80;1.00;;;;;;5094943;28;20252;-42
2023/07/21 07:05:32;;;;;;;14.97;11.47;;;18.90;1.00;;;;;;5094240;28;20248;-42
2023/07/21 07:07:57;;;;;;;16.00;11.70;;;19.00;1.00;;;;;;5094850;28;20186;-41
2023/07/21 07:10:23;;;;;;;12.47;11.23;;;19.20;1.00;;;;;;5094427;28;20183;-42
2023/07/21 07:12:50;;;;;;;12.07;10.80;;;19.50;1.00;;;;;;5094214;28;20178;-42
2023/07/21 07:15:16;;;;;;;11.33;10.33;;;19.60;1.00;;;;;;5094323;28;20214;-42
2023/07/21 07:17:41;;;;;;;12.13;10.30;;;19.70;1.00;;;;;;5094015;28;20175;-42
2023/07/21 07:20:09;;;;;;;11.43;10.33;;;19.90;1.00;;;;;;5075952;28;20175;-43
2023/07/21 07:22:36;;;;;;;11.73;9.63;;;20.10;1.00;;;;;;5094274;28;20178;-42
2023/07/21 07:25:03;;;;;;;10.13;9.13;;;20.20;1.00;;;;;;5094171;28;20175;-43
2023/07/21 07:27:28;;;;;;;11.23;9.67;;;20.40;1.00;;;;;;5093923;28;20185;-41
2023/07/21 07:29:54;;;;;;;11.70;8.63;;;20.50;1.00;;;;;;5093929;28;20186;-44
2023/07/21 07:32:20;;;;;;;9.87;8.90;;;20.70;1.00;;;;;;5094124;28;20623;-44
2023/07/21 07:34:45;;;;;;;9.57;8.57;;;20.80;99.90;;;;;;5093785;28;20174;-43
2023/07/21 07:37:11;;;;;;;14.03;8.43;;;20.90;99.90;;;;;;5093585;28;20355;-40
2023/07/21 07:39:36;;;;;;;9.93;8.90;;;21.00;99.90;;;;;;5093786;28;20194;-42
2023/07/21 07:42:02;;;;;;;9.40;8.00;;;21.00;99.90;;;;;;5093756;28;20651;-42
2023/07/21 07:44:28;;;;;;;8.70;7.90;;;21.00;99.90;;;;;;5093720;28;20570;-42
2023/07/21 07:46:56;;;;;;;8.60;7.70;;;21.10;99.90;;;;;;5093552;28;20249;-42
2023/07/21 07:49:22;;;;;;;8.27;7.47;;;21.30;99.90;;;;;;5093715;28;20213;-42
2023/07/21 07:51:48;;;;;;;11.10;8.07;;;21.40;1.00;;;;;;5093813;28;20211;-42
2023/07/21 07:54:14;;;;;;;9.03;7.63;;;21.30;1.00;;;;;;5075496;28;20183;-42
2023/07/21 07:56:40;;;;;;;10.20;8.07;;;21.30;1.00;;;;;;5093240;28;20211;-42
2023/07/21 07:59:06;;;;;;;10.60;7.70;;;21.30;1.00;;;;;;5093288;28;20597;-42
2023/07/21 08:01:32;;;;;;;8.43;6.90;;;21.30;1.00;;;;;;5093548;28;20235;-43
2023/07/21 08:03:58;;;;;;;8.13;7.33;;;21.40;1.00;;;;;;5093594;28;20183;-45
2023/07/21 08:06:24;;;;;;;7.37;6.67;;;21.40;99.90;;;;;;5075235;28;20554;-44
2023/07/21 08:08:50;;;;;;;7.77;6.93;;;21.40;62.50;;;;;;5093671;28;20204;-42
2023/07/21 08:11:15;;;;;;;10.20;7.10;;;21.40;1.00;;;;;;5093415;28;20190;-44
2023/07/21 08:13:41;;;;;;;6.80;6.10;;;21.60;1.00;;;;;;5093528;28;20207;-43
2023/07/21 08:16:12;;;;;;;7.40;5.80;;;21.70;1.00;;;;;;5074978;28;20223;-44
2023/07/21 08:18:38;;;;;;;5.93;5.37;;;21.60;1.00;;;;;;5093408;28;20168;-43
2023/07/21 08:21:21;;;;;;;7.00;6.00;;;21.60;99.90;;;;;;5075368;28;20189;-43
2023/07/21 08:23:48;;;;;;;5.93;5.20;;;21.40;99.90;;;;;;5093803;28;20266;-43
2023/07/21 08:26:14;;;;;;;6.13;4.90;;;21.20;99.90;;;;;;5093244;28;20205;-42
2023/07/21 08:28:40;;;;;;;5.20;4.67;;;21.00;1.00;;;;;;5075363;28;20182;-43
2023/07/21 08:31:05;;;;;;;6.03;4.00;;;21.00;99.90;;;;;;5093580;28;20269;-44
2023/07/21 08:33:31;;;;;;;6.80;4.67;;;21.00;99.90;;;;;;5093365;28;20631;-45
2023/07/21 08:35:56;;;;;;;5.47;4.97;;;21.10;1.00;;;;;;5093185;28;20214;-43
2023/07/21 08:38:23;;;;;;;6.63;6.00;;;21.20;99.90;;;;;;5093428;28;20176;-43
2023/07/21 08:40:50;;;;;;;6.80;6.10;;;21.40;1.00;;;;;;5093671;28;20182;-42
2023/07/21 08:43:17;;;;;;;6.37;5.77;;;21.50;1.00;;;;;;5093542;28;20185;-44
2023/07/21 08:45:44;;;;;;;8.27;6.17;;;21.60;1.00;;;;;;5093328;28;20245;-41
2023/07/21 08:48:10;;;;;;;6.23;4.83;;;21.70;1.00;;;;;;5094240;28;20204;-43
2023/07/21 08:50:38;;;;;;;9.50;5.40;;;21.80;33.60;;;;;;5097039;28;20183;-43
2023/07/21 08:53:04;;;;;;;4.60;4.17;;;21.90;1.00;;;;;;5097220;28;20183;-44
2023/07/21 08:55:29;;;;;;;4.30;3.90;;;22.00;99.90;;;;;;5096643;28;20333;-43
2023/07/21 08:57:59;;;;;;;4.17;3.77;;;21.90;1.00;;;;;;5097185;28;20185;-43
2023/07/21 09:00:25;;;;;;;9.20;4.10;;;22.10;1.00;;;;;;5078522;28;20191;-40
2023/07/21 09:03:00;;;;;;;4.00;3.43;;;22.20;1.00;;;;;;5097049;28;20266;-44
2023/07/21 09:05:26;;;;;;;4.83;4.10;;;22.30;99.90;;;;;;5096632;28;20194;-43
2023/07/21 09:07:52;;;;;;;4.17;3.20;;;22.40;1.00;;;;;;5097186;28;20652;-42
2023/07/21 09:10:31;;;;;;;4.97;3.70;;;22.40;99.90;;;;;;5096553;28;20186;-41
2023/07/21 09:12:58;;;;;;;4.00;3.10;;;22.30;1.00;;;;;;5096730;28;20259;-43
2023/07/21 09:15:23;;;;;;;4.63;3.10;;;22.30;1.00;;;;;;5096638;28;20187;-41
2023/07/21 09:17:49;;;;;;;3.10;2.80;;;22.10;1.00;;;;;;5096483;28;20171;-43
2023/07/21 09:20:15;;;;;;;4.07;3.67;;;22.10;99.90;;;;;;5078324;28;20229;-43
2023/07/21 09:22:40;;;;;;;3.87;3.13;;;22.20;99.90;;;;;;5096676;28;20207;-42
2023/07/21 09:25:08;;;;;;;5.47;3.10;;;22.30;1.00;;;;;;5096531;28;20202;-42
2023/07/21 09:27:35;;;;;;;4.80;3.67;;;22.50;1.00;;;;;;5078002;28;20193;-42
2023/07/21 09:30:02;;;;;;;5.47;3.20;;;22.60;1.00;;;;;;5096513;28;20198;-44
2023/07/21 09:32:28;;;;;;;4.07;3.33;;;22.70;99.90;;;;;;5096402;28;20185;-45
2023/07/21 09:34:58;;;;;;;3.53;3.10;;;22.90;99.90;;;;;;5096183;28;20194;-43
2023/07/21 09:37:26;;;;;;;4.97;3.70;;;23.10;1.00;;;;;;5096339;28;20236;-43
2023/07/21 09:39:54;;;;;;;3.83;3.03;;;23.10;99.90;;;;;;5096136;28;20702;-45
2023/07/21 09:42:23;;;;;;;4.80;2.90;;;23.00;99.90;;;;;;5096169;28;20247;-44
2023/07/21 09:44:51;;;;;;;3.87;2.57;;;23.00;99.90;;;;;;5077651;28;20243;-45
2023/07/21 09:47:24;;;;;;;3.07;2.60;;;23.00;99.90;;;;;;5077698;28;20187;-45
2023/07/21 09:49:54;;;;;;;3.30;3.00;;;23.10;99.90;;;;;;5096479;28;20173;-43
2023/07/21 09:52:21;;;;;;;5.97;4.27;;;23.20;1.00;;;;;;5096150;28;20176;-42
2023/07/21 09:55:01;;;;;;;3.43;2.97;;;23.20;99.90;;;;;;5095730;28;20179;-43
2023/07/21 09:58:17;;;;;;;3.60;3.17;;;23.20;99.90;;;;;;5096007;28;20654;-41
2023/07/21 10:00:44;;;;;;;3.80;3.10;;;23.20;1.00;;;;;;5076718;28;20226;-41
2023/07/21 10:03:11;;;;;;;3.77;3.13;;;23.30;1.00;;;;;;5095682;28;20183;-43
2023/07/21 10:05:40;;;;;;;4.00;2.80;;;23.50;99.90;;;;;;5095342;28;20659;-43
2023/07/21 10:08:09;;;;;;;4.90;3.23;;;23.70;2.30;;;;;;5095733;28;20554;-42
2023/07/21 10:10:35;;;;;;;4.07;3.50;;;23.70;99.90;;;;;;5077403;28;20186;-44
2023/07/21 10:13:05;;;;;;;5.10;3.67;;;23.80;99.90;;;;;;5095614;28;20171;-44
2023/07/21 10:15:32;;;;;;;7.73;3.43;;;23.80;99.90;;;;;;5077099;28;20616;-44
2023/07/21 10:18:06;;;;;;;3.63;3.33;;;23.70;99.90;;;;;;5095463;28;20174;-44
2023/07/21 10:21:03;;;;;;;4.63;3.43;;;23.80;15.30;;;;;;5095816;28;20166;-43
2023/07/21 10:23:38;;;;;;;3.90;3.50;;;24.00;1.00;;;;;;5079122;28;20195;-45
2023/07/21 10:26:11;;;;;;;3.43;3.13;;;24.20;56.80;;;;;;5095165;28;20546;-45
2023/07/21 10:28:46;;;;;;;3.63;3.33;;;24.20;99.90;;;;;;5095318;28;20175;-43
2023/07/21 10:31:28;;;;;;;5.33;3.47;;;24.30;1.00;;;;;;5095105;28;20167;-43
2023/07/21 10:34:11;;;;;;;3.93;2.93;;;24.30;99.90;;;;;;5095317;28;20252;-45
2023/07/21 10:36:52;;;;;;;3.90;3.20;;;24.40;1.00;;;;;;5076972;28;20706;-43
2023/07/21 10:39:22;;;;;;;4.63;3.47;;;24.50;1.00;;;;;;5095081;28;20163;-43
2023/07/21 10:41:52;;;;;;;4.73;3.00;;;24.70;99.90;;;;;;5077084;28;20191;-44
2023/07/21 10:44:19;;;;;;;2.87;2.60;;;24.60;99.90;;;;;;5095431;28;20179;-41
2023/07/21 10:46:47;;;;;;;3.30;2.50;;;24.40;99.90;;;;;;5095017;28;20285;-43
2023/07/21 10:49:16;;;;;;;3.30;2.80;;;24.40;1.00;;;;;;5094601;28;20647;-43
2023/07/21 10:51:47;;;;;;;2.87;2.27;;;24.40;99.90;;;;;;5094477;28;20179;-44
2023/07/21 10:54:14;;;;;;;5.87;2.40;;;24.50;1.00;;;;;;5094971;28;20190;-43
2023/07/21 10:56:42;;;;;;;4.47;2.77;;;24.60;1.00;;;;;;5094959;28;20238;-45
2023/07/21 10:59:09;;;;;;;4.77;2.83;;;24.80;1.00;;;;;;5095643;28;20187;-47
2023/07/21 11:01:46;;;;;;;4.03;2.53;;;24.90;56.90;;;;;;5077728;28;20225;-48
2023/07/21 12:33:35;;;;;;;0.95;0.95;;;26.50;1.00;;;;;;5078549;28;20198;-43
2023/07/21 12:36:46;;;;;;;4.40;2.00;;;26.60;1.00;;;;;;5035750;28;20236;-49
2023/07/21 15:53:36;;;;;;;3.40;3.10;;;20.80;1.00;;;;;;5074071;28;20194;-42
2023/07/21 16:10:33;;;;;;;4.03;3.10;;;21.50;1.00;;;;;;5074388;28;20191;-47
2023/07/21 16:20:14;;;;;;;3.37;3.07;;;21.30;1.00;;;;;;5074837;28;20195;-48
2023/07/21 16:22:43;;;;;;;3.80;3.40;;;21.20;1.00;;;;;;5072471;28;20195;-43
2023/07/21 16:25:09;;;;;;;5.00;4.00;;;21.20;93.80;;;;;;5056176;28;20307;-41
2023/07/21 16:27:36;;;;;;;5.57;3.40;;;21.10;1.00;;;;;;5055996;28;20203;-49
2023/07/21 16:30:01;;;;;;;4.23;3.70;;;21.10;1.00;;;;;;5074009;28;20292;-41
2023/07/21 16:32:27;;;;;;;4.57;3.53;;;21.00;99.90;;;;;;5056083;28;20199;-48
2023/07/21 16:34:53;;;;;;;6.73;4.23;;;21.00;99.90;;;;;;5074021;28;20183;-47
2023/07/21 16:37:18;;;;;;;5.03;3.93;;;20.90;1.00;;;;;;5074209;28;20559;-47
2023/07/21 16:39:47;;;;;;;5.30;3.80;;;20.90;99.90;;;;;;5073911;28;20682;-47
2023/07/21 16:42:13;;;;;;;4.80;3.70;;;20.80;1.00;;;;;;5073812;28;20178;-46
2023/07/21 16:44:39;;;;;;;5.63;3.93;;;20.80;1.00;;;;;;5074016;28;20168;-42
2023/07/21 16:47:13;;;;;;;4.63;3.83;;;20.70;76.40;;;;;;5073934;28;20265;-40
2023/07/21 16:49:43;;;;;;;4.80;3.60;;;20.70;99.90;;;;;;5057437;28;20168;-42
2023/07/21 16:52:08;;;;;;;5.00;3.70;;;20.80;99.90;;;;;;5056151;28;20183;-44
2023/07/21 16:54:34;;;;;;;5.07;3.83;;;20.70;1.00;;;;;;5073888;28;20233;-46
2023/07/21 16:57:00;;;;;;;4.43;3.77;;;20.60;1.00;;;;;;5073998;28;20207;-43
2023/07/21 16:59:26;;;;;;;3.97;3.57;;;20.60;1.00;;;;;;5073980;28;20186;-48
2023/07/21 17:01:52;;;;;;;4.90;3.67;;;20.50;1.00;;;;;;5055590;28;20180;-40
2023/07/21 17:04:17;;;;;;;4.63;3.50;;;20.50;99.90;;;;;;5073867;28;20171;-43
2023/07/21 17:06:43;;;;;;;5.43;3.13;;;20.50;99.90;;;;;;5073761;28;20215;-46
2023/07/21 17:09:09;;;;;;;7.17;3.57;;;20.50;99.90;;;;;;5074172;28;20269;-44
2023/07/21 17:11:35;;;;;;;4.93;3.80;;;20.50;99.90;;;;;;5077262;28;20175;-47
2023/07/21 17:14:00;;;;;;;4.00;3.60;;;20.40;1.00;;;;;;5077494;28;20176;-47
2023/07/21 17:16:26;;;;;;;3.23;2.93;;;20.40;99.90;;;;;;5059122;28;20217;-42
2023/07/21 17:18:51;;;;;;;6.10;3.90;;;20.30;99.90;;;;;;5077012;28;20172;-41
2023/07/21 17:21:17;;;;;;;5.20;3.50;;;20.20;99.90;;;;;;5077099;28;20168;-45
2023/07/21 17:23:43;;;;;;;6.47;3.67;;;20.20;1.00;;;;;;5059053;28;20218;-46
2023/07/21 17:26:08;;;;;;;4.67;3.57;;;20.10;1.00;;;;;;5042242;28;20218;-42
2023/07/21 17:28:35;;;;;;;4.33;3.67;;;20.10;1.00;;;;;;5076849;28;20182;-40
2023/07/21 17:31:04;;;;;;;5.53;3.50;;;20.00;99.90;;;;;;5058979;28;20541;-48
2023/07/21 17:33:31;;;;;;;4.23;3.47;;;19.90;1.00;;;;;;5076867;28;20172;-43
2023/07/21 17:35:57;;;;;;;5.33;3.77;;;20.00;1.00;;;;;;5076591;28;20221;-41
2023/07/21 17:38:25;;;;;;;8.47;3.60;;;20.00;99.90;;;;;;5042185;28;20176;-46
2023/07/21 17:41:02;;;;;;;5.00;3.57;;;20.00;99.90;;;;;;5058794;28;20265;-44
2023/07/21 17:43:45;;;;;;;5.47;4.00;;;20.00;99.90;;;;;;5076545;28;20200;-43
2023/07/21 17:46:38;;;;;;;6.93;4.00;;;20.00;1.00;;;;;;5055745;28;20211;-46
2023/07/21 17:49:04;;;;;;;5.70;4.30;;;20.10;1.00;;;;;;5077004;28;20164;-43
2023/07/21 17:51:30;;;;;;;4.93;3.90;;;20.20;1.00;;;;;;5058302;28;20184;-48
2023/07/21 17:53:56;;;;;;;6.80;4.30;;;20.30;99.90;;;;;;5076466;28;20587;-42
2023/07/21 17:56:22;;;;;;;4.60;3.70;;;20.30;1.00;;;;;;5058207;28;20210;-48
2023/07/21 17:58:48;;;;;;;5.53;3.87;;;20.30;99.90;;;;;;5076662;28;20317;-41
2023/07/21 18:01:14;;;;;;;5.13;3.90;;;20.40;1.00;;;;;;5076156;28;20225;-47
2023/07/21 18:03:41;;;;;;;5.50;3.67;;;20.40;99.90;;;;;;5076250;28;20206;-47